createdAt,value
2019-04-10T00:01:38.005Z,14.00
2019-04-10T00:04:45.403Z,12.23
2019-04-10T00:07:53.972Z,13.83
2019-04-10T00:11:02.576Z,13.37
2019-04-10T00:14:10.668Z,13.67
2019-04-10T00:17:18.586Z,12.67
2019-04-10T00:20:26.732Z,12.63
2019-04-10T00:23:34.016Z,11.97
2019-04-10T00:26:41.835Z,13.33
2019-04-10T00:29:49.233Z,12.37
2019-04-10T00:32:56.539Z,13.10
2019-04-10T00:36:04.345Z,14.67
2019-04-10T00:39:12.589Z,15.13
2019-04-10T00:42:21.018Z,15.13
2019-04-10T00:45:29.285Z,15.77
2019-04-10T00:48:36.815Z,14.07
2019-04-10T00:51:44.030Z,12.63
2019-04-10T00:54:51.197Z,13.03
2019-04-10T00:57:58.471Z,12.43
2019-04-10T01:01:06.257Z,12.60
2019-04-10T01:04:14.046Z,13.33
2019-04-10T01:07:32.612Z,12.80
2019-04-10T01:10:32.438Z,11.90
2019-04-10T01:13:41.111Z,12.73
2019-04-10T01:16:49.695Z,11.97
2019-04-10T01:19:57.104Z,12.17
2019-04-10T01:23:05.713Z,11.47
2019-04-10T01:26:13.424Z,11.60
2019-04-10T01:29:21.722Z,10.13
2019-04-10T01:32:29.956Z,10.80
2019-04-10T01:35:38.326Z,10.90
2019-04-10T01:38:46.216Z,10.73
2019-04-10T01:41:54.377Z,10.47
2019-04-10T01:45:02.898Z,11.33
2019-04-10T01:48:10.756Z,10.00
2019-04-10T01:51:19.214Z,10.40
2019-04-10T01:54:27.020Z,11.63
2019-04-10T01:57:34.625Z,10.63
2019-04-10T02:00:46.599Z,9.03
2019-04-10T02:03:54.311Z,11.37
2019-04-10T02:07:02.191Z,10.60
2019-04-10T02:10:10.724Z,9.60
2019-04-10T02:13:19.110Z,9.13
2019-04-10T02:16:27.205Z,8.93
2019-04-10T02:19:34.682Z,9.03
2019-04-10T02:22:42.294Z,8.27
2019-04-10T02:25:49.780Z,8.10
2019-04-10T02:28:57.621Z,8.70
2019-04-10T02:32:05.775Z,8.07
2019-04-10T02:35:17.300Z,8.30
2019-04-10T02:38:38.646Z,8.20
2019-04-10T02:41:34.379Z,8.33
2019-04-10T02:44:41.751Z,7.53
2019-04-10T02:47:50.950Z,7.77
2019-04-10T02:50:59.666Z,8.17
2019-04-10T02:54:07.068Z,7.10
2019-04-10T02:57:14.628Z,7.63
2019-04-10T03:03:38.400Z,7.47
2019-04-10T03:06:47.146Z,7.47
2019-04-10T03:10:05.750Z,7.13
2019-04-10T03:13:04.753Z,7.97
2019-04-10T03:16:13.865Z,7.67
2019-04-10T03:19:21.395Z,7.80
2019-04-10T03:22:28.990Z,7.73
2019-04-10T03:25:37.187Z,7.50
2019-04-10T03:28:44.508Z,8.83
2019-04-10T03:31:53.075Z,6.80
2019-04-10T03:35:08.299Z,8.37
2019-04-10T03:38:16.190Z,8.23
2019-04-10T03:41:24.131Z,7.83
2019-04-10T03:44:32.501Z,7.60
2019-04-10T03:47:40.352Z,7.73
2019-04-10T03:50:47.969Z,8.30
2019-04-10T03:53:56.370Z,8.20
2019-04-10T03:57:04.561Z,7.50
2019-04-10T04:00:14.068Z,7.27
2019-04-10T04:03:21.804Z,7.40
2019-04-10T04:06:29.205Z,8.27
2019-04-10T04:09:36.488Z,8.37
2019-04-10T04:12:44.638Z,7.40
2019-04-10T04:15:52.620Z,7.90
2019-04-10T04:18:59.961Z,7.47
2019-04-10T04:22:08.231Z,7.47
2019-04-10T04:25:16.906Z,7.00
2019-04-10T04:28:25.679Z,6.80
2019-04-10T04:31:35.421Z,6.10
2019-04-10T04:34:43.290Z,6.30
2019-04-10T04:37:50.663Z,6.00
2019-04-10T04:40:58.379Z,6.20
2019-04-10T04:44:06.073Z,5.83
2019-04-10T04:47:13.476Z,6.43
2019-04-10T04:50:21.074Z,6.57
2019-04-10T04:53:28.391Z,6.20
2019-04-10T04:56:35.766Z,6.63
2019-04-10T04:59:42.963Z,6.70
2019-04-10T05:02:50.257Z,7.17
2019-04-10T05:06:00.601Z,5.57
2019-04-10T05:09:08.097Z,7.27
2019-04-10T05:12:16.406Z,6.77
2019-04-10T05:15:24.807Z,5.80
2019-04-10T05:18:32.136Z,6.83
2019-04-10T05:21:39.451Z,5.70
2019-04-10T05:24:46.801Z,6.10
2019-04-10T05:27:55.313Z,5.97
2019-04-10T05:31:03.143Z,5.80
2019-04-10T05:34:11.435Z,5.30
2019-04-10T05:37:19.213Z,6.13
2019-04-10T05:40:26.450Z,6.17
2019-04-10T05:43:34.182Z,5.77
2019-04-10T05:46:41.496Z,6.07
2019-04-10T05:49:49.172Z,5.73
2019-04-10T05:52:56.678Z,5.47
2019-04-10T05:56:04.362Z,6.27
2019-04-10T05:59:13.176Z,5.13
2019-04-10T06:02:21.304Z,5.57
2019-04-10T06:05:28.585Z,5.00
2019-04-10T06:08:35.858Z,5.70
2019-04-10T06:11:44.534Z,5.27
2019-04-10T06:14:52.864Z,6.43
2019-04-10T06:18:00.324Z,5.33
2019-04-10T06:21:07.833Z,5.57
2019-04-10T06:24:16.232Z,5.90
2019-04-10T06:27:24.179Z,5.80
2019-04-10T06:30:32.252Z,5.00
2019-04-10T06:33:40.319Z,5.70
2019-04-10T06:36:47.804Z,10.63
2019-04-10T06:40:08.053Z,20.27
2019-04-10T06:43:04.500Z,19.87
2019-04-10T06:46:12.538Z,19.10
2019-04-10T06:49:20.655Z,20.47
2019-04-10T06:52:28.310Z,20.80
2019-04-10T06:55:36.471Z,27.87
2019-04-10T06:58:44.400Z,28.90
2019-04-10T07:01:55.099Z,29.37
2019-04-10T07:05:05.728Z,30.30
2019-04-10T07:08:16.536Z,29.97
2019-04-10T07:11:21.753Z,29.83
2019-04-10T07:14:29.220Z,30.03
2019-04-10T07:17:40.318Z,31.40
2019-04-10T07:20:46.360Z,30.83
2019-04-10T07:23:55.244Z,31.30
2019-04-10T07:27:05.194Z,31.07
2019-04-10T07:30:14.181Z,31.80
2019-04-10T07:33:21.394Z,29.97
2019-04-10T07:36:28.757Z,30.40
2019-04-10T07:39:37.398Z,30.43
2019-04-10T07:42:46.263Z,31.17
2019-04-10T07:45:56.642Z,27.50
2019-04-10T07:49:03.228Z,28.83
2019-04-10T07:52:11.007Z,29.43
2019-04-10T07:55:19.049Z,30.40
2019-04-10T07:58:26.996Z,26.97
2019-04-10T08:01:35.173Z,27.43
2019-04-10T08:04:43.191Z,27.20
2019-04-10T08:07:53.393Z,28.30
2019-04-10T08:11:01.475Z,27.97
2019-04-10T08:14:10.562Z,29.27
2019-04-10T08:17:18.353Z,30.77
2019-04-10T08:20:26.458Z,28.83
2019-04-10T08:23:33.945Z,29.00
2019-04-10T08:26:41.446Z,30.17
2019-04-10T08:29:48.786Z,27.23
2019-04-10T08:33:01.075Z,28.67
2019-04-10T08:36:05.988Z,29.47
2019-04-10T08:39:26.437Z,29.43
2019-04-10T08:42:22.858Z,26.73
2019-04-10T08:45:40.346Z,28.73
2019-04-10T08:48:39.347Z,28.47
2019-04-10T08:51:47.869Z,27.60
2019-04-10T08:54:55.721Z,26.97
2019-04-10T08:58:03.336Z,27.60
2019-04-10T09:01:11.194Z,28.43
2019-04-10T09:04:18.948Z,29.03
2019-04-10T09:07:28.432Z,27.37
2019-04-10T09:10:36.578Z,26.60
2019-04-10T09:13:44.451Z,27.80
2019-04-10T09:16:53.118Z,27.17
2019-04-10T09:20:00.746Z,27.73
2019-04-10T09:23:18.746Z,27.90
2019-04-10T09:26:17.493Z,28.80
2019-04-10T09:29:25.789Z,27.57
2019-04-10T09:32:34.727Z,28.87
2019-04-10T09:35:42.294Z,27.97
2019-04-10T09:38:50.683Z,30.03
2019-04-10T09:41:58.804Z,29.03
2019-04-10T09:45:07.459Z,29.10
2019-04-10T09:48:14.955Z,28.60
2019-04-10T09:51:23.567Z,28.77
2019-04-10T09:54:32.885Z,28.90
2019-04-10T09:57:41.550Z,28.93
2019-04-10T10:00:50.741Z,29.57
2019-04-10T10:03:59.245Z,26.47
2019-04-10T10:07:08.238Z,27.37
2019-04-10T10:10:17.222Z,29.87
2019-04-10T10:13:25.579Z,27.87
2019-04-10T10:16:33.964Z,27.40
2019-04-10T10:19:42.646Z,28.37
2019-04-10T10:22:51.691Z,27.20
2019-04-10T10:25:59.803Z,27.93
2019-04-10T10:29:07.734Z,29.47
2019-04-10T10:32:17.026Z,28.27
2019-04-10T10:35:25.246Z,29.77
2019-04-10T10:38:32.969Z,26.97
2019-04-10T10:41:40.592Z,26.47
2019-04-10T10:44:48.169Z,26.67
2019-04-10T10:47:56.721Z,28.80
2019-04-10T10:51:04.616Z,27.93
2019-04-10T10:54:12.612Z,27.83
2019-04-10T10:57:20.136Z,29.90
2019-04-10T11:00:27.354Z,28.13
2019-04-10T11:03:34.729Z,28.33
2019-04-10T11:06:51.629Z,27.90
2019-04-10T11:09:52.954Z,29.43
2019-04-10T11:13:00.703Z,28.93
2019-04-10T11:16:09.207Z,29.20
2019-04-10T11:19:17.272Z,28.90
2019-04-10T11:22:26.174Z,31.17
2019-04-10T11:25:33.762Z,28.10
2019-04-10T11:28:41.914Z,27.63
2019-04-10T11:31:50.126Z,29.37
2019-04-10T11:34:57.433Z,30.63
2019-04-10T11:38:05.997Z,27.67
2019-04-10T11:41:14.975Z,29.33
2019-04-10T11:44:22.929Z,28.17
2019-04-10T11:47:32.431Z,27.60
2019-04-10T11:50:43.879Z,30.67
2019-04-10T11:53:53.503Z,28.47
2019-04-10T11:57:02.644Z,28.53
2019-04-10T12:00:12.266Z,28.13
2019-04-10T12:03:18.537Z,28.23
2019-04-10T12:06:29.742Z,28.70
2019-04-10T12:12:45.896Z,25.80
2019-04-10T12:15:53.614Z,28.10
2019-04-10T12:19:02.747Z,28.50
2019-04-10T12:22:11.602Z,28.37
2019-04-10T12:25:20.771Z,27.90
2019-04-10T12:28:28.299Z,30.20
2019-04-10T12:31:36.407Z,29.33
2019-04-10T12:34:44.504Z,29.20
2019-04-10T12:38:01.558Z,30.03
2019-04-10T12:41:01.416Z,30.77
2019-04-10T12:44:09.728Z,31.60
2019-04-10T12:47:17.534Z,30.47
2019-04-10T12:50:25.243Z,29.60
2019-04-10T12:53:33.766Z,28.47
2019-04-10T12:56:42.139Z,30.63
2019-04-10T12:59:49.919Z,29.43
2019-04-10T13:02:57.336Z,29.37
2019-04-10T13:06:05.848Z,28.70
2019-04-10T13:09:14.491Z,28.90
2019-04-10T13:12:22.811Z,29.53
2019-04-10T13:15:31.864Z,30.73
2019-04-10T13:18:40.687Z,29.90
2019-04-10T13:21:48.655Z,30.17
2019-04-10T13:24:57.758Z,30.40
2019-04-10T13:28:05.490Z,29.67
2019-04-10T13:31:13.035Z,30.77
2019-04-10T13:34:21.452Z,30.30
2019-04-10T13:37:29.280Z,31.67
2019-04-10T13:40:37.495Z,31.90
2019-04-10T13:43:44.860Z,30.23
2019-04-10T13:46:53.169Z,30.93
2019-04-10T13:50:02.349Z,29.93
2019-04-10T13:53:10.370Z,30.80
2019-04-10T13:56:19.263Z,30.07
2019-04-10T13:59:26.542Z,29.23
2019-04-10T14:02:36.041Z,28.90
2019-04-10T14:05:43.805Z,29.27
2019-04-10T14:09:07.840Z,31.77
2019-04-10T14:12:04.188Z,30.80
2019-04-10T14:15:12.107Z,30.33
2019-04-10T14:18:22.034Z,31.70
2019-04-10T14:21:40.836Z,31.63
2019-04-10T14:24:55.503Z,31.23
2019-04-10T14:28:03.533Z,29.07
2019-04-10T14:31:34.251Z,30.23
2019-04-10T14:34:51.193Z,30.63
2019-04-10T14:37:59.312Z,30.93
2019-04-10T14:41:07.143Z,29.67
2019-04-10T14:44:14.834Z,30.90
2019-04-10T14:47:23.301Z,30.13
2019-04-10T14:50:32.001Z,32.40
2019-04-10T14:53:41.454Z,31.83
2019-04-10T14:56:56.826Z,34.80
2019-04-10T15:00:08.535Z,33.37
2019-04-10T15:03:18.789Z,31.83
2019-04-10T15:06:26.541Z,32.40
2019-04-10T15:12:50.328Z,32.40
2019-04-10T15:16:02.990Z,34.07
2019-04-10T15:19:12.139Z,32.67
2019-04-10T15:22:20.087Z,29.00
2019-04-10T15:25:28.151Z,33.73
2019-04-10T15:28:36.041Z,32.43
2019-04-10T15:31:44.032Z,35.23
2019-04-10T15:34:51.548Z,37.07
2019-04-10T15:37:59.918Z,34.07
2019-04-10T15:41:08.481Z,32.97
2019-04-10T15:44:18.213Z,34.30
2019-04-10T15:47:26.993Z,33.47
2019-04-10T15:50:34.872Z,34.30
2019-04-10T15:53:43.204Z,33.30
2019-04-10T15:56:52.109Z,33.70
2019-04-10T15:59:59.595Z,32.60
2019-04-10T16:03:09.200Z,32.77
2019-04-10T16:06:17.472Z,33.37
2019-04-10T16:09:27.417Z,35.17
2019-04-10T16:12:35.257Z,36.47
2019-04-10T16:15:43.388Z,35.47
2019-04-10T16:18:53.735Z,34.87
2019-04-10T16:22:04.249Z,35.97
2019-04-10T16:25:27.682Z,37.27
2019-04-10T16:28:35.663Z,35.50
2019-04-10T16:31:43.943Z,35.00
2019-04-10T16:34:51.653Z,34.60
2019-04-10T16:38:00.187Z,36.77
2019-04-10T16:41:10.119Z,36.73
2019-04-10T16:44:19.205Z,36.83
2019-04-10T16:47:28.253Z,37.73
2019-04-10T16:50:36.376Z,38.33
2019-04-10T16:53:45.433Z,37.87
2019-04-10T16:56:54.167Z,38.80
2019-04-10T17:00:02.928Z,40.17
2019-04-10T17:03:11.582Z,38.73
2019-04-10T17:06:19.905Z,37.93
2019-04-10T17:09:29.002Z,38.47
2019-04-10T17:12:36.711Z,39.73
2019-04-10T17:15:44.325Z,37.77
2019-04-10T17:18:51.875Z,38.30
2019-04-10T17:22:00.544Z,36.97
2019-04-10T17:25:09.660Z,37.33
2019-04-10T17:28:18.415Z,39.70
2019-04-10T17:31:26.626Z,38.83
2019-04-10T17:34:34.724Z,40.50
2019-04-10T17:37:42.565Z,39.37
2019-04-10T17:40:53.213Z,40.20
2019-04-10T17:44:01.106Z,41.63
2019-04-10T17:47:09.941Z,39.27
2019-04-10T17:50:20.300Z,40.87
2019-04-10T17:53:29.274Z,42.73
2019-04-10T17:56:38.130Z,40.40
2019-04-10T17:59:46.886Z,42.00
2019-04-10T18:02:55.057Z,40.70
2019-04-10T18:06:03.513Z,41.37
2019-04-10T18:09:11.755Z,39.43
2019-04-10T18:12:19.624Z,39.97
2019-04-10T18:15:28.285Z,39.37
2019-04-10T18:18:37.861Z,37.77
2019-04-10T18:21:45.932Z,37.60
2019-04-10T18:24:53.828Z,38.83
2019-04-10T18:28:01.598Z,38.40
2019-04-10T18:31:10.315Z,37.53
2019-04-10T18:34:17.692Z,37.27
2019-04-10T18:37:25.633Z,37.23
2019-04-10T18:40:33.213Z,39.57
2019-04-10T18:43:41.141Z,40.67
2019-04-10T18:46:48.868Z,39.23
2019-04-10T18:49:56.220Z,37.73
2019-04-10T18:53:03.825Z,36.60
2019-04-10T18:56:11.529Z,37.40
2019-04-10T18:59:26.849Z,38.67
2019-04-10T19:02:53.937Z,37.50
2019-04-10T19:06:04.515Z,38.67
2019-04-10T19:09:21.028Z,38.37
2019-04-10T19:12:22.731Z,39.57
2019-04-10T19:15:31.081Z,39.27
2019-04-10T19:18:39.542Z,37.40
2019-04-10T19:21:48.338Z,41.30
2019-04-10T19:24:56.721Z,39.53
2019-04-10T19:28:04.561Z,39.07
2019-04-10T19:31:18.885Z,39.83
2019-04-10T19:34:23.694Z,38.27
2019-04-10T19:37:32.448Z,40.97
2019-04-10T19:40:40.460Z,39.10
2019-04-10T19:43:48.520Z,40.43
2019-04-10T19:46:57.811Z,41.70
2019-04-10T19:50:06.683Z,39.23
2019-04-10T19:53:15.117Z,38.97
2019-04-10T19:56:23.206Z,39.30
2019-04-10T19:59:31.647Z,40.23
2019-04-10T20:02:40.193Z,40.60
2019-04-10T20:05:49.323Z,38.83
2019-04-10T20:08:57.853Z,39.30
2019-04-10T20:12:06.450Z,38.03
2019-04-10T20:15:14.193Z,36.37
2019-04-10T20:18:21.663Z,37.93
2019-04-10T20:21:30.063Z,36.73
2019-04-10T20:24:38.002Z,39.80
2019-04-10T20:27:45.664Z,35.43
2019-04-10T20:30:54.861Z,36.70
2019-04-10T20:34:03.406Z,37.33
2019-04-10T20:37:11.830Z,40.87
2019-04-10T20:40:22.063Z,40.10
2019-04-10T20:43:30.729Z,37.77
2019-04-10T20:46:38.903Z,38.03
2019-04-10T20:49:46.791Z,39.70
2019-04-10T20:52:55.720Z,39.23
2019-04-10T20:56:03.542Z,38.87
2019-04-10T20:59:12.024Z,37.57
2019-04-10T21:02:20.293Z,39.77
2019-04-10T21:05:28.318Z,39.03
2019-04-10T21:08:36.301Z,37.77
2019-04-10T21:11:56.393Z,37.80
2019-04-10T21:14:53.257Z,38.10
2019-04-10T21:18:00.902Z,36.93
2019-04-10T21:21:08.648Z,37.27
2019-04-10T21:24:16.772Z,37.93
2019-04-10T21:27:25.787Z,39.47
2019-04-10T21:30:52.887Z,42.60
2019-04-10T21:34:21.957Z,40.07
2019-04-10T21:37:32.595Z,39.03
2019-04-10T21:40:41.238Z,41.80
2019-04-10T21:43:52.205Z,39.20
2019-04-10T21:47:03.948Z,41.20
2019-04-10T21:50:17.150Z,41.23
2019-04-10T21:53:26.231Z,41.07
2019-04-10T21:56:37.060Z,41.73
2019-04-10T21:59:45.488Z,41.63
2019-04-10T22:02:54.075Z,43.80
2019-04-10T22:06:26.064Z,41.37
2019-04-10T22:10:08.067Z,41.23
2019-04-10T22:13:15.604Z,40.83
2019-04-10T22:16:24.127Z,41.30
2019-04-10T22:19:32.149Z,41.87
2019-04-10T22:22:39.802Z,40.77
2019-04-10T22:25:47.956Z,42.60
2019-04-10T22:28:55.419Z,43.13
2019-04-10T22:32:04.035Z,40.17
2019-04-10T22:35:12.037Z,42.67
2019-04-10T22:38:19.740Z,41.33
2019-04-10T22:41:30.806Z,42.63
2019-04-10T22:44:41.968Z,41.37
2019-04-10T22:47:50.005Z,39.73
2019-04-10T22:51:03.466Z,38.63
2019-04-10T22:54:13.062Z,42.40
2019-04-10T22:57:21.077Z,39.60
2019-04-10T23:00:32.956Z,39.37
2019-04-10T23:03:41.066Z,41.10
2019-04-10T23:06:49.298Z,37.67
2019-04-10T23:09:56.915Z,35.57
2019-04-10T23:13:08.406Z,39.30
2019-04-10T23:16:17.438Z,37.63
2019-04-10T23:19:25.813Z,37.10
2019-04-10T23:22:33.750Z,37.80
2019-04-10T23:25:42.589Z,39.33
2019-04-10T23:28:50.349Z,40.43
2019-04-10T23:31:58.310Z,40.43
2019-04-10T23:35:07.252Z,40.13
2019-04-10T23:38:15.259Z,38.00
2019-04-10T23:41:23.351Z,37.70
2019-04-10T23:44:31.271Z,38.80
2019-04-10T23:47:38.816Z,37.03
2019-04-10T23:50:46.236Z,39.80
2019-04-10T23:53:55.852Z,39.27
2019-04-10T23:57:03.358Z,39.97
